FAB009 SLTR-SLET
Flight info
| Callsign | FAB009 |
|---|---|
| Flight time | 0h 37m |
| Altitude | 23000 |
| Route | IREDO A301 PAKES DCT MULDA |
| Aircraft | LJ35/M-SGHRWXY/SB1 |
Departure
| Time | 2026-04-27 02:28 |
|---|---|
| Airport | Teniente Av. Jorge Henrich Arauz Airport (SLTR) |
Arrival
| Time | 2026-04-27 03:06 |
|---|---|
| Airport | El Trompillo Airport (SLET) |
| Time | Latitude | Longitude | Altitude | Speed | Heading |
|---|---|---|---|---|---|
| 2026-04-27 02:14 | -14.82215 | -64.91834 | 516 ft | 0 kts | 50° |
| 2026-04-27 02:25 | -14.82213 | -64.91831 | 513 ft | 3 kts | 50° |
| 2026-04-27 02:25 | -14.82198 | -64.91804 | 515 ft | 6 kts | 102° |
| 2026-04-27 02:25 | -14.82182 | -64.91739 | 516 ft | 12 kts | 62° |
| 2026-04-27 02:26 | -14.82172 | -64.91637 | 517 ft | 17 kts | 89° |
| 2026-04-27 02:26 | -14.82175 | -64.91540 | 517 ft | 15 kts | 93° |
| 2026-04-27 02:26 | -14.82227 | -64.91437 | 515 ft | 20 kts | 134° |
| 2026-04-27 02:26 | -14.82332 | -64.91326 | 515 ft | 23 kts | 133° |
| 2026-04-27 02:27 | -14.82458 | -64.91198 | 514 ft | 27 kts | 134° |
| 2026-04-27 02:27 | -14.82564 | -64.91082 | 514 ft | 17 kts | 131° |
| 2026-04-27 02:27 | -14.82644 | -64.91025 | 515 ft | 8 kts | 168° |
| 2026-04-27 02:27 | -14.82632 | -64.91021 | 515 ft | 6 kts | 311° |
| 2026-04-27 02:28 | -14.82495 | -64.91161 | 514 ft | 78 kts | 315° |
| 2026-04-27 02:28 | -14.81833 | -64.91845 | 716 ft | 177 kts | 317° |
| 2026-04-27 02:28 | -14.80829 | -64.92862 | 1578 ft | 221 kts | 318° |
| 2026-04-27 02:28 | -14.79655 | -64.94011 | 2757 ft | 243 kts | 319° |
| 2026-04-27 02:29 | -14.78277 | -64.95061 | 4014 ft | 254 kts | 328° |
| 2026-04-27 02:29 | -14.76810 | -64.96115 | 5326 ft | 262 kts | 315° |
| 2026-04-27 02:29 | -14.75887 | -64.97806 | 6643 ft | 284 kts | 287° |
| 2026-04-27 02:29 | -14.75807 | -64.99890 | 8014 ft | 302 kts | 261° |
| 2026-04-27 02:30 | -14.76641 | -65.01915 | 9512 ft | 314 kts | 236° |
| 2026-04-27 02:30 | -14.78257 | -65.03455 | 10969 ft | 322 kts | 211° |
| 2026-04-27 02:30 | -14.80371 | -65.04238 | 12470 ft | 326 kts | 191° |
| 2026-04-27 02:30 | -14.82635 | -65.04416 | 14019 ft | 327 kts | 178° |
| 2026-04-27 02:31 | -14.84901 | -65.04245 | 15467 ft | 326 kts | 175° |
| 2026-04-27 02:31 | -14.87163 | -65.04066 | 16972 ft | 324 kts | 175° |
| 2026-04-27 02:31 | -14.89405 | -65.03889 | 18465 ft | 322 kts | 175° |
| 2026-04-27 02:31 | -14.91625 | -65.03713 | 19805 ft | 319 kts | 175° |
| 2026-04-27 02:32 | -14.93837 | -65.03535 | 21183 ft | 317 kts | 175° |
| 2026-04-27 02:32 | -14.96005 | -65.03202 | 22546 ft | 316 kts | 162° |
| 2026-04-27 02:32 | -14.98052 | -65.02133 | 22940 ft | 350 kts | 143° |
| 2026-04-27 02:32 | -14.99857 | -65.00305 | 22959 ft | 387 kts | 131° |
| 2026-04-27 02:33 | -15.01649 | -64.98064 | 22959 ft | 420 kts | 129° |
| 2026-04-27 02:33 | -15.03613 | -64.95697 | 22959 ft | 445 kts | 133° |
| 2026-04-27 02:33 | -15.05884 | -64.93422 | 22960 ft | 464 kts | 138° |
| 2026-04-27 02:33 | -15.08356 | -64.91197 | 22959 ft | 477 kts | 139° |
| 2026-04-27 02:34 | -15.10857 | -64.88869 | 22957 ft | 487 kts | 136° |
| 2026-04-27 02:34 | -15.13259 | -64.86380 | 22954 ft | 492 kts | 134° |
| 2026-04-27 02:34 | -15.15690 | -64.83865 | 22953 ft | 494 kts | 136° |
| 2026-04-27 02:34 | -15.18204 | -64.81441 | 22952 ft | 495 kts | 137° |
| 2026-04-27 02:35 | -15.20737 | -64.79017 | 22954 ft | 494 kts | 136° |
| 2026-04-27 02:35 | -15.23212 | -64.76541 | 22953 ft | 494 kts | 135° |
| 2026-04-27 02:35 | -15.25673 | -64.74050 | 22956 ft | 494 kts | 136° |
| 2026-04-27 02:35 | -15.28159 | -64.71601 | 22957 ft | 495 kts | 136° |
| 2026-04-27 02:36 | -15.30664 | -64.69156 | 22952 ft | 495 kts | 136° |
| 2026-04-27 02:36 | -15.33150 | -64.66694 | 22952 ft | 494 kts | 136° |
| 2026-04-27 02:36 | -15.35625 | -64.64220 | 22955 ft | 494 kts | 136° |
| 2026-04-27 02:36 | -15.38074 | -64.61786 | 22943 ft | 494 kts | 136° |
| 2026-04-27 02:37 | -15.40559 | -64.59331 | 22946 ft | 494 kts | 136° |
| 2026-04-27 02:37 | -15.43045 | -64.56866 | 22947 ft | 494 kts | 136° |
| 2026-04-27 02:37 | -15.45530 | -64.54396 | 22947 ft | 495 kts | 136° |
| 2026-04-27 02:37 | -15.48014 | -64.51934 | 22947 ft | 495 kts | 136° |
| 2026-04-27 02:38 | -15.50522 | -64.49494 | 22940 ft | 495 kts | 139° |
| 2026-04-27 02:38 | -15.53325 | -64.47408 | 22924 ft | 495 kts | 148° |
| 2026-04-27 02:38 | -15.56268 | -64.45566 | 22931 ft | 494 kts | 149° |
| 2026-04-27 02:38 | -15.59215 | -64.43716 | 22931 ft | 494 kts | 148° |
| 2026-04-27 02:39 | -15.62150 | -64.41863 | 22934 ft | 494 kts | 148° |
| 2026-04-27 02:39 | -15.65093 | -64.40008 | 22934 ft | 494 kts | 148° |
| 2026-04-27 02:39 | -15.68030 | -64.38162 | 22934 ft | 495 kts | 148° |
| 2026-04-27 02:39 | -15.70982 | -64.36306 | 22934 ft | 495 kts | 148° |
| 2026-04-27 02:40 | -15.73919 | -64.34453 | 22932 ft | 495 kts | 148° |
| 2026-04-27 02:40 | -15.76866 | -64.32592 | 22928 ft | 495 kts | 148° |
| 2026-04-27 02:40 | -15.79773 | -64.30760 | 22935 ft | 496 kts | 149° |
| 2026-04-27 02:40 | -15.82729 | -64.28898 | 22935 ft | 496 kts | 148° |
| 2026-04-27 02:41 | -15.85680 | -64.27036 | 22934 ft | 496 kts | 148° |
| 2026-04-27 02:41 | -15.88666 | -64.25150 | 22932 ft | 497 kts | 148° |
| 2026-04-27 02:41 | -15.91581 | -64.23309 | 22934 ft | 497 kts | 148° |
| 2026-04-27 02:41 | -15.94533 | -64.21445 | 22938 ft | 496 kts | 148° |
| 2026-04-27 02:42 | -15.97482 | -64.19583 | 22940 ft | 496 kts | 148° |
| 2026-04-27 02:42 | -16.00433 | -64.17714 | 22936 ft | 497 kts | 148° |
| 2026-04-27 02:42 | -16.03389 | -64.15847 | 22935 ft | 496 kts | 148° |
| 2026-04-27 02:42 | -16.06341 | -64.13982 | 22941 ft | 496 kts | 148° |
| 2026-04-27 02:43 | -16.09291 | -64.12112 | 22935 ft | 497 kts | 148° |
| 2026-04-27 02:43 | -16.12237 | -64.10246 | 22934 ft | 497 kts | 148° |
| 2026-04-27 02:43 | -16.15197 | -64.08374 | 22931 ft | 497 kts | 148° |
| 2026-04-27 02:43 | -16.18139 | -64.06511 | 22940 ft | 497 kts | 148° |
| 2026-04-27 02:44 | -16.21104 | -64.04632 | 22940 ft | 497 kts | 148° |
| 2026-04-27 02:44 | -16.24049 | -64.02764 | 22940 ft | 497 kts | 148° |
| 2026-04-27 02:44 | -16.27005 | -64.00890 | 22940 ft | 496 kts | 148° |
| 2026-04-27 02:44 | -16.29957 | -63.99018 | 22946 ft | 497 kts | 148° |
| 2026-04-27 02:45 | -16.32903 | -63.97149 | 22943 ft | 497 kts | 148° |
| 2026-04-27 02:45 | -16.35853 | -63.95275 | 22943 ft | 497 kts | 149° |
| 2026-04-27 02:45 | -16.38807 | -63.93400 | 22939 ft | 497 kts | 148° |
| 2026-04-27 02:45 | -16.41759 | -63.91525 | 22945 ft | 497 kts | 148° |
| 2026-04-27 02:46 | -16.44714 | -63.89648 | 22943 ft | 497 kts | 148° |
| 2026-04-27 02:46 | -16.47660 | -63.87774 | 22943 ft | 497 kts | 148° |
| 2026-04-27 02:46 | -16.50614 | -63.85901 | 22942 ft | 497 kts | 149° |
| 2026-04-27 02:46 | -16.53586 | -63.84061 | 22942 ft | 497 kts | 149° |
| 2026-04-27 02:47 | -16.56564 | -63.82230 | 22945 ft | 497 kts | 149° |
| 2026-04-27 02:47 | -16.59537 | -63.80374 | 22945 ft | 497 kts | 149° |
| 2026-04-27 02:47 | -16.62494 | -63.78513 | 22945 ft | 497 kts | 149° |
| 2026-04-27 02:47 | -16.65460 | -63.76662 | 22960 ft | 497 kts | 149° |
| 2026-04-27 02:48 | -16.68437 | -63.74815 | 22949 ft | 499 kts | 149° |
| 2026-04-27 02:48 | -16.71415 | -63.72958 | 22944 ft | 499 kts | 149° |
| 2026-04-27 02:48 | -16.74349 | -63.71119 | 22949 ft | 499 kts | 149° |
| 2026-04-27 02:48 | -16.77360 | -63.69237 | 22951 ft | 499 kts | 149° |
| 2026-04-27 02:49 | -16.80307 | -63.67399 | 22952 ft | 499 kts | 149° |
| 2026-04-27 02:49 | -16.83278 | -63.65540 | 22950 ft | 498 kts | 149° |
| 2026-04-27 02:49 | -16.86254 | -63.63678 | 22952 ft | 498 kts | 149° |
| 2026-04-27 02:49 | -16.89231 | -63.61816 | 22950 ft | 498 kts | 149° |
| 2026-04-27 02:50 | -16.92200 | -63.59959 | 22951 ft | 498 kts | 149° |
| 2026-04-27 02:50 | -16.95182 | -63.58092 | 22946 ft | 499 kts | 149° |
| 2026-04-27 02:50 | -16.98157 | -63.56227 | 22949 ft | 499 kts | 149° |
| 2026-04-27 02:50 | -17.01131 | -63.54363 | 22960 ft | 498 kts | 149° |
| 2026-04-27 02:51 | -17.04099 | -63.52503 | 22959 ft | 499 kts | 149° |
| 2026-04-27 02:51 | -17.07080 | -63.50635 | 22956 ft | 499 kts | 149° |
| 2026-04-27 02:51 | -17.10056 | -63.48767 | 22960 ft | 499 kts | 149° |
| 2026-04-27 02:51 | -17.13031 | -63.46901 | 22963 ft | 499 kts | 149° |
| 2026-04-27 02:52 | -17.16008 | -63.45031 | 22956 ft | 499 kts | 149° |
| 2026-04-27 02:52 | -17.18984 | -63.43162 | 22954 ft | 498 kts | 149° |
| 2026-04-27 02:52 | -17.21948 | -63.41300 | 22958 ft | 494 kts | 149° |
| 2026-04-27 02:52 | -17.24851 | -63.39476 | 22665 ft | 485 kts | 149° |
| 2026-04-27 02:53 | -17.27716 | -63.37675 | 22476 ft | 476 kts | 149° |
| 2026-04-27 02:53 | -17.30524 | -63.35909 | 22474 ft | 466 kts | 149° |
| 2026-04-27 02:53 | -17.33282 | -63.34173 | 22464 ft | 459 kts | 149° |
| 2026-04-27 02:53 | -17.35966 | -63.32485 | 22462 ft | 454 kts | 149° |
| 2026-04-27 02:54 | -17.38725 | -63.30752 | 22447 ft | 471 kts | 149° |
| 2026-04-27 02:54 | -17.41729 | -63.29254 | 22431 ft | 484 kts | 160° |
| 2026-04-27 02:54 | -17.44959 | -63.28204 | 22455 ft | 480 kts | 164° |
| 2026-04-27 02:54 | -17.48007 | -63.27278 | 22490 ft | 434 kts | 164° |
| 2026-04-27 02:55 | -17.50786 | -63.26429 | 22505 ft | 399 kts | 163° |
| 2026-04-27 02:55 | -17.53359 | -63.25635 | 22482 ft | 372 kts | 163° |
| 2026-04-27 02:55 | -17.55813 | -63.24878 | 21711 ft | 365 kts | 164° |
| 2026-04-27 02:55 | -17.58236 | -63.24135 | 20699 ft | 361 kts | 164° |
| 2026-04-27 02:56 | -17.60635 | -63.23399 | 19770 ft | 355 kts | 164° |
| 2026-04-27 02:56 | -17.62997 | -63.22670 | 18862 ft | 349 kts | 165° |
| 2026-04-27 02:56 | -17.65307 | -63.21958 | 17942 ft | 344 kts | 165° |
| 2026-04-27 02:56 | -17.67592 | -63.21257 | 16914 ft | 341 kts | 165° |
| 2026-04-27 02:57 | -17.69858 | -63.20559 | 15914 ft | 338 kts | 165° |
| 2026-04-27 02:57 | -17.72113 | -63.19875 | 14927 ft | 336 kts | 165° |
| 2026-04-27 02:57 | -17.74345 | -63.19250 | 13994 ft | 335 kts | 166° |
| 2026-04-27 02:57 | -17.76596 | -63.18644 | 12971 ft | 334 kts | 166° |
| 2026-04-27 02:58 | -17.78873 | -63.18240 | 11936 ft | 331 kts | 181° |
| 2026-04-27 02:58 | -17.81144 | -63.18456 | 10951 ft | 327 kts | 191° |
| 2026-04-27 02:58 | -17.82666 | -63.18726 | 10315 ft | 326 kts | 193° |
| 2026-04-27 02:58 | -17.84864 | -63.19154 | 9332 ft | 325 kts | 193° |
| 2026-04-27 02:59 | -17.87819 | -63.19745 | 7966 ft | 322 kts | 193° |
| 2026-04-27 02:59 | -17.89271 | -63.20042 | 7312 ft | 320 kts | 193° |
| 2026-04-27 02:59 | -17.92021 | -63.21050 | 5972 ft | 304 kts | 213° |
| 2026-04-27 02:59 | -17.93141 | -63.21798 | 5307 ft | 284 kts | 217° |
| 2026-04-27 03:00 | -17.94759 | -63.23017 | 4288 ft | 288 kts | 219° |
| 2026-04-27 03:00 | -17.96496 | -63.24027 | 3290 ft | 286 kts | 195° |
| 2026-04-27 03:00 | -17.98364 | -63.24026 | 3046 ft | 254 kts | 163° |
| 2026-04-27 03:00 | -17.99747 | -63.23111 | 3041 ft | 225 kts | 134° |
| 2026-04-27 03:01 | -18.00366 | -63.21709 | 3042 ft | 207 kts | 100° |
| 2026-04-27 03:01 | -18.00077 | -63.20281 | 3036 ft | 204 kts | 63° |
| 2026-04-27 03:01 | -17.99056 | -63.19229 | 3039 ft | 209 kts | 37° |
| 2026-04-27 03:01 | -17.97845 | -63.18426 | 3040 ft | 202 kts | 36° |
| 2026-04-27 03:02 | -17.96691 | -63.17622 | 3044 ft | 196 kts | 36° |
| 2026-04-27 03:02 | -17.95559 | -63.16851 | 3043 ft | 192 kts | 35° |
| 2026-04-27 03:02 | -17.94440 | -63.16125 | 3041 ft | 187 kts | 36° |
| 2026-04-27 03:02 | -17.93347 | -63.15389 | 3042 ft | 185 kts | 36° |
| 2026-04-27 03:03 | -17.92238 | -63.14700 | 3029 ft | 187 kts | 21° |
| 2026-04-27 03:03 | -17.89757 | -63.14989 | 2953 ft | 177 kts | 358° |
| 2026-04-27 03:03 | -17.88583 | -63.14934 | 2760 ft | 163 kts | 8° |
| 2026-04-27 03:04 | -17.87474 | -63.14821 | 2585 ft | 158 kts | 7° |
| 2026-04-27 03:04 | -17.86378 | -63.14699 | 2392 ft | 163 kts | 7° |
| 2026-04-27 03:04 | -17.85249 | -63.14728 | 2295 ft | 164 kts | 351° |
| 2026-04-27 03:04 | -17.84194 | -63.15024 | 2069 ft | 150 kts | 334° |
| 2026-04-27 03:05 | -17.83282 | -63.15551 | 1812 ft | 149 kts | 322° |
| 2026-04-27 03:05 | -17.82445 | -63.16165 | 1554 ft | 146 kts | 320° |
| 2026-04-27 03:05 | -17.81643 | -63.16771 | 1365 ft | 131 kts | 323° |
| 2026-04-27 03:05 | -17.81091 | -63.17188 | 1363 ft | 71 kts | 324° |
| 2026-04-27 03:06 | -17.80782 | -63.17425 | 1365 ft | 38 kts | 324° |
| 2026-04-27 03:06 | -17.80603 | -63.17555 | 1368 ft | 20 kts | 323° |
| 2026-04-27 03:06 | -17.80525 | -63.17627 | 1368 ft | 9 kts | 245° |
| 2026-04-27 03:06 | -17.80576 | -63.17696 | 1367 ft | 10 kts | 252° |
| 2026-04-27 03:07 | -17.80542 | -63.17745 | 1367 ft | 8 kts | 205° |
| 2026-04-27 03:07 | -17.80558 | -63.17740 | 1366 ft | 0 kts | 148° |